createdAt,value
2022-12-31T00:00:46.159Z,17.30
2022-12-31T00:03:18.081Z,17.30
2022-12-31T00:05:51.157Z,17.30
2022-12-31T00:08:22.818Z,17.30
2022-12-31T00:10:54.398Z,17.40
2022-12-31T00:13:25.982Z,17.50
2022-12-31T00:16:11.645Z,17.50
2022-12-31T00:18:49.803Z,17.50
2022-12-31T00:21:22.866Z,17.30
2022-12-31T00:23:54.485Z,17.10
2022-12-31T00:26:27.641Z,16.90
2022-12-31T00:29:00.432Z,16.70
2022-12-31T00:31:33.011Z,16.50
2022-12-31T00:34:05.281Z,16.40
2022-12-31T00:36:38.829Z,16.20
2022-12-31T00:39:10.731Z,16.00
2022-12-31T00:41:43.984Z,15.90
2022-12-31T00:44:15.615Z,15.80
2022-12-31T00:46:48.261Z,15.80
2022-12-31T00:49:19.879Z,15.70
2022-12-31T00:51:52.830Z,15.60
2022-12-31T00:54:24.467Z,15.60
2022-12-31T00:56:56.095Z,15.60
2022-12-31T00:59:27.713Z,15.60
2022-12-31T01:01:59.466Z,15.70
2022-12-31T01:04:31.105Z,15.70
2022-12-31T01:07:04.042Z,15.70
2022-12-31T01:09:35.678Z,15.80
2022-12-31T01:12:07.488Z,15.90
2022-12-31T01:14:39.108Z,15.90
2022-12-31T01:17:10.701Z,16.00
2022-12-31T01:19:43.021Z,16.00
2022-12-31T01:22:15.986Z,16.00
2022-12-31T01:24:47.593Z,16.00
2022-12-31T01:27:19.286Z,16.00
2022-12-31T01:29:50.901Z,16.00
2022-12-31T01:32:22.507Z,16.10
2022-12-31T01:34:54.125Z,16.10
2022-12-31T01:37:27.726Z,16.10
2022-12-31T01:39:59.328Z,16.10
2022-12-31T01:42:30.925Z,16.10
2022-12-31T01:45:02.599Z,16.10
2022-12-31T01:47:36.048Z,16.20
2022-12-31T01:50:10.173Z,16.20
2022-12-31T01:52:45.156Z,16.20
2022-12-31T01:55:18.879Z,16.20
2022-12-31T01:57:52.002Z,16.20
2022-12-31T02:00:23.631Z,16.20
2022-12-31T02:02:57.371Z,16.20
2022-12-31T02:05:32.442Z,16.20
2022-12-31T02:08:06.399Z,16.20
2022-12-31T02:10:42.156Z,16.20
2022-12-31T02:13:18.868Z,16.20
2022-12-31T02:15:54.804Z,16.30
2022-12-31T02:18:38.859Z,16.30
2022-12-31T02:21:19.391Z,16.30
2022-12-31T02:24:00.742Z,16.30
2022-12-31T02:26:41.630Z,16.30
2022-12-31T02:29:31.146Z,16.40
2022-12-31T02:32:05.231Z,16.40
2022-12-31T02:34:37.524Z,16.40
2022-12-31T02:37:12.075Z,16.50
2022-12-31T02:39:44.479Z,16.50
2022-12-31T02:42:16.106Z,16.50
2022-12-31T02:44:47.716Z,16.60
2022-12-31T02:47:29.376Z,16.60
2022-12-31T02:50:05.798Z,16.60
2022-12-31T02:52:43.492Z,16.70
2022-12-31T02:55:18.150Z,16.70
2022-12-31T02:57:53.056Z,16.80
2022-12-31T03:00:43.251Z,16.80
2022-12-31T03:03:16.418Z,16.80
2022-12-31T03:05:48.311Z,16.70
2022-12-31T03:08:23.129Z,16.80
2022-12-31T03:10:56.858Z,16.80
2022-12-31T03:13:28.489Z,16.80
2022-12-31T03:16:00.176Z,16.80
2022-12-31T03:18:56.099Z,16.90
2022-12-31T03:21:46.176Z,16.90
2022-12-31T03:24:36.732Z,16.90
2022-12-31T03:27:08.370Z,16.90
2022-12-31T03:29:39.972Z,16.90
2022-12-31T03:32:11.575Z,16.90
2022-12-31T03:34:46.490Z,16.90
2022-12-31T03:37:18.085Z,16.80
2022-12-31T03:39:49.695Z,16.80
2022-12-31T03:42:21.275Z,16.80
2022-12-31T03:44:53.052Z,16.80
2022-12-31T03:47:24.827Z,16.80
2022-12-31T03:49:57.794Z,16.80
2022-12-31T03:52:29.451Z,16.80
2022-12-31T03:55:02.217Z,16.80
2022-12-31T03:57:33.990Z,16.80
2022-12-31T04:00:06.967Z,16.80
2022-12-31T04:02:38.776Z,16.80
2022-12-31T04:05:12.108Z,16.80
2022-12-31T04:07:43.812Z,16.80
2022-12-31T04:10:16.571Z,16.80
2022-12-31T04:12:48.285Z,16.90
2022-12-31T04:15:20.967Z,16.90
2022-12-31T04:17:52.564Z,16.90
2022-12-31T04:20:25.546Z,17.00
2022-12-31T04:22:57.138Z,17.00
2022-12-31T04:25:28.792Z,17.00
2022-12-31T04:28:00.410Z,17.10
2022-12-31T04:30:32.012Z,17.20
2022-12-31T04:33:03.685Z,17.20
2022-12-31T04:35:36.749Z,17.20
2022-12-31T04:38:08.356Z,17.30
2022-12-31T04:40:59.933Z,17.30
2022-12-31T04:43:31.515Z,17.40
2022-12-31T04:46:03.216Z,17.40
2022-12-31T04:48:34.946Z,17.40
2022-12-31T04:51:07.903Z,17.50
2022-12-31T04:53:39.567Z,17.50
2022-12-31T04:56:11.194Z,17.50
2022-12-31T04:58:43.105Z,17.50
2022-12-31T05:01:15.024Z,17.50
2022-12-31T05:03:47.041Z,17.50
2022-12-31T05:06:21.159Z,17.50
2022-12-31T05:08:52.837Z,17.50
2022-12-31T05:11:24.467Z,17.60
2022-12-31T05:13:56.137Z,17.50
2022-12-31T05:16:27.780Z,17.50
2022-12-31T05:18:59.425Z,17.50
2022-12-31T05:21:32.395Z,17.50
2022-12-31T05:24:04.254Z,17.60
2022-12-31T05:26:35.852Z,17.60
2022-12-31T05:29:07.472Z,17.60
2022-12-31T05:31:39.131Z,17.60
2022-12-31T05:34:10.710Z,17.60
2022-12-31T05:36:43.688Z,17.60
2022-12-31T05:39:15.346Z,17.70
2022-12-31T05:41:47.010Z,17.70
2022-12-31T05:44:18.633Z,17.70
2022-12-31T05:46:50.291Z,17.80
2022-12-31T05:49:21.876Z,17.80
2022-12-31T05:51:54.824Z,17.80
2022-12-31T05:54:26.540Z,17.90
2022-12-31T05:56:58.293Z,17.90
2022-12-31T05:59:30.074Z,17.90
2022-12-31T06:02:01.674Z,18.00
2022-12-31T06:04:33.301Z,18.00
2022-12-31T06:07:06.234Z,18.00
2022-12-31T06:09:37.861Z,18.00
2022-12-31T06:12:09.758Z,18.00
2022-12-31T06:14:45.588Z,18.00
2022-12-31T06:17:17.673Z,18.00
2022-12-31T06:19:49.366Z,18.10
2022-12-31T06:22:22.385Z,18.00
2022-12-31T06:24:54.349Z,18.00
2022-12-31T06:27:25.950Z,18.00
2022-12-31T06:29:57.532Z,18.00
2022-12-31T06:32:29.155Z,18.10
2022-12-31T06:35:00.749Z,18.10
2022-12-31T06:37:33.732Z,18.10
2022-12-31T06:40:06.050Z,18.00
2022-12-31T06:42:37.709Z,18.00
2022-12-31T06:45:09.709Z,18.00
2022-12-31T06:47:41.379Z,18.00
2022-12-31T06:50:12.984Z,18.00
2022-12-31T06:52:45.950Z,18.00
2022-12-31T06:55:17.923Z,18.00
2022-12-31T06:57:49.816Z,18.00
2022-12-31T07:00:21.759Z,18.00
2022-12-31T07:03:08.298Z,18.00
2022-12-31T07:05:45.126Z,17.90
2022-12-31T07:08:24.650Z,17.90
2022-12-31T07:11:01.222Z,17.90
2022-12-31T07:13:45.001Z,17.80
2022-12-31T07:16:25.345Z,17.90
2022-12-31T07:19:00.948Z,17.80
2022-12-31T07:21:34.908Z,17.80
2022-12-31T07:24:09.620Z,17.70
2022-12-31T07:27:01.032Z,17.70
2022-12-31T07:29:40.652Z,17.60
2022-12-31T07:32:18.760Z,17.60
2022-12-31T07:34:53.701Z,17.50
2022-12-31T07:37:31.357Z,17.50
2022-12-31T07:40:10.131Z,17.40
2022-12-31T07:42:44.566Z,17.30
2022-12-31T07:45:18.778Z,17.30
2022-12-31T07:47:50.611Z,17.30
2022-12-31T07:50:22.457Z,17.30
2022-12-31T07:52:54.361Z,17.30
2022-12-31T07:55:27.332Z,17.30
2022-12-31T07:58:03.296Z,17.30
2022-12-31T08:00:35.144Z,17.20
2022-12-31T08:03:12.073Z,17.20
2022-12-31T08:05:48.551Z,17.10
2022-12-31T08:08:28.916Z,17.10
2022-12-31T08:11:07.422Z,17.10
2022-12-31T08:13:40.143Z,17.00
2022-12-31T08:16:12.342Z,17.00
2022-12-31T08:18:44.167Z,16.90
2022-12-31T08:21:19.936Z,16.90
2022-12-31T08:23:57.512Z,16.80
2022-12-31T08:26:34.997Z,16.80
2022-12-31T08:29:13.315Z,16.80
2022-12-31T08:31:51.741Z,16.90
2022-12-31T08:34:26.333Z,16.80
2022-12-31T08:37:01.151Z,16.80
2022-12-31T08:39:40.759Z,16.80
2022-12-31T08:42:19.511Z,16.80
2022-12-31T08:44:55.675Z,16.80
2022-12-31T08:47:37.000Z,16.80
2022-12-31T08:50:13.216Z,16.80
2022-12-31T08:52:45.420Z,16.80
2022-12-31T08:55:18.698Z,16.80
2022-12-31T08:57:56.292Z,16.80
2022-12-31T09:00:28.096Z,16.80
2022-12-31T09:03:08.165Z,16.80
2022-12-31T09:05:46.186Z,16.80
2022-12-31T09:08:23.620Z,16.90
2022-12-31T09:10:58.432Z,16.90
2022-12-31T09:13:36.801Z,16.90
2022-12-31T09:16:14.020Z,16.90
2022-12-31T09:18:45.670Z,16.90
2022-12-31T09:21:17.453Z,16.90
2022-12-31T09:23:49.287Z,17.00
2022-12-31T09:26:32.275Z,17.00
2022-12-31T09:29:10.131Z,17.00
2022-12-31T09:31:46.111Z,17.00
2022-12-31T09:34:21.337Z,17.10
2022-12-31T09:36:56.699Z,17.10
2022-12-31T09:39:32.962Z,17.10
2022-12-31T09:42:10.649Z,17.10
2022-12-31T09:45:00.284Z,17.10
2022-12-31T09:47:44.173Z,17.10
2022-12-31T09:50:23.098Z,17.10
2022-12-31T09:53:02.928Z,17.20
2022-12-31T09:55:36.725Z,17.20
2022-12-31T09:58:15.404Z,17.20
2022-12-31T10:00:50.249Z,17.20
2022-12-31T10:03:29.816Z,17.20
2022-12-31T10:06:11.596Z,17.30
2022-12-31T10:08:49.681Z,17.30
2022-12-31T10:11:29.204Z,17.40
2022-12-31T10:14:08.031Z,17.50
2022-12-31T10:16:52.668Z,17.50
2022-12-31T10:19:35.646Z,17.50
2022-12-31T10:22:14.424Z,17.60
2022-12-31T10:24:51.243Z,17.60
2022-12-31T10:27:37.809Z,17.70
2022-12-31T10:30:13.274Z,17.80
2022-12-31T10:32:50.929Z,17.90
2022-12-31T10:35:28.229Z,17.90
2022-12-31T10:38:05.985Z,18.00
2022-12-31T10:40:52.532Z,18.10
2022-12-31T10:43:46.104Z,18.10
2022-12-31T10:46:36.778Z,18.20
2022-12-31T10:49:17.385Z,18.20
2022-12-31T10:51:58.949Z,18.30
2022-12-31T10:54:45.518Z,18.40
2022-12-31T10:57:32.000Z,18.40
2022-12-31T11:00:17.013Z,18.50
2022-12-31T11:03:12.858Z,18.60
2022-12-31T11:05:55.201Z,18.70
2022-12-31T11:08:38.556Z,18.70
2022-12-31T11:11:19.048Z,18.80
2022-12-31T11:14:07.378Z,18.90
2022-12-31T11:16:52.457Z,18.90
2022-12-31T11:19:27.506Z,19.00
2022-12-31T11:22:12.859Z,19.00
2022-12-31T11:25:01.864Z,19.00
2022-12-31T11:27:46.078Z,19.10
2022-12-31T11:30:22.544Z,19.10
2022-12-31T11:33:09.238Z,19.20
2022-12-31T11:35:47.628Z,19.30
2022-12-31T11:38:22.665Z,19.30
2022-12-31T11:40:59.806Z,19.30
2022-12-31T11:43:35.566Z,19.30
2022-12-31T11:46:18.950Z,19.30
2022-12-31T11:48:55.890Z,19.40
2022-12-31T11:51:36.504Z,19.40
2022-12-31T11:54:32.424Z,19.50
2022-12-31T11:57:12.483Z,19.60
2022-12-31T11:59:44.611Z,19.80
2022-12-31T12:02:23.269Z,20.00
2022-12-31T12:04:57.027Z,20.10
2022-12-31T12:07:29.632Z,20.20
2022-12-31T12:10:04.068Z,20.50
2022-12-31T12:12:41.127Z,20.50
2022-12-31T12:15:16.934Z,20.50
2022-12-31T12:17:56.046Z,20.50
2022-12-31T12:42:48.381Z,22.00
2022-12-31T12:45:20.898Z,22.10
2022-12-31T12:47:55.438Z,22.10
2022-12-31T12:50:34.643Z,22.20
2022-12-31T12:53:12.457Z,22.10
2022-12-31T12:55:49.827Z,22.10
2022-12-31T12:58:34.241Z,22.00
2022-12-31T13:01:10.524Z,22.00
2022-12-31T13:04:32.472Z,21.80
2022-12-31T13:06:53.198Z,21.70
2022-12-31T13:09:31.858Z,21.50
2022-12-31T13:12:09.413Z,21.40
2022-12-31T13:14:46.198Z,21.30
2022-12-31T13:17:30.645Z,21.20
2022-12-31T13:20:05.088Z,21.20
2022-12-31T13:22:39.869Z,21.00
2022-12-31T13:25:20.431Z,20.90
2022-12-31T13:27:53.786Z,20.70
2022-12-31T13:30:30.702Z,20.60
2022-12-31T13:33:05.309Z,20.50
2022-12-31T13:35:40.673Z,20.40
2022-12-31T13:38:14.978Z,20.30
2022-12-31T13:40:49.277Z,20.30
2022-12-31T13:43:25.588Z,20.20
2022-12-31T13:46:02.102Z,20.10
2022-12-31T13:48:36.053Z,20.10
2022-12-31T13:51:11.419Z,20.10
2022-12-31T13:53:46.656Z,20.00
2022-12-31T13:56:21.924Z,19.90
2022-12-31T13:58:57.712Z,19.90
2022-12-31T14:01:50.634Z,19.80
2022-12-31T14:04:32.382Z,19.80
2022-12-31T14:07:07.517Z,19.80
2022-12-31T14:09:39.168Z,19.70
2022-12-31T14:12:21.166Z,19.60
2022-12-31T14:14:55.134Z,19.50
2022-12-31T14:17:33.638Z,19.50
2022-12-31T14:20:11.234Z,19.50
2022-12-31T14:22:47.518Z,19.40
2022-12-31T14:25:22.135Z,19.40
2022-12-31T14:27:54.956Z,19.30
2022-12-31T14:30:28.443Z,19.30
2022-12-31T14:33:13.353Z,19.30
2022-12-31T14:35:56.731Z,19.30
2022-12-31T14:38:36.135Z,19.20
2022-12-31T14:41:18.305Z,19.10
2022-12-31T14:43:54.600Z,19.10
2022-12-31T14:46:30.333Z,19.10
2022-12-31T14:49:06.462Z,19.00
2022-12-31T14:51:39.436Z,18.90
2022-12-31T14:54:28.948Z,18.80
2022-12-31T14:57:09.112Z,18.70
2022-12-31T14:59:51.130Z,18.70
2022-12-31T15:02:25.337Z,18.60
2022-12-31T15:05:04.655Z,18.50
2022-12-31T15:07:43.011Z,18.50
2022-12-31T15:10:16.262Z,18.40
2022-12-31T15:13:05.934Z,18.30
2022-12-31T15:15:58.413Z,18.30
2022-12-31T15:18:35.039Z,18.20
2022-12-31T15:21:15.704Z,18.10
2022-12-31T15:23:49.788Z,18.00
2022-12-31T15:26:23.237Z,18.00
2022-12-31T15:28:59.530Z,18.00
2022-12-31T15:31:32.384Z,17.90
2022-12-31T15:34:05.050Z,17.90
2022-12-31T15:36:38.741Z,17.90
2022-12-31T15:39:25.648Z,17.80
2022-12-31T15:42:36.816Z,17.80
2022-12-31T15:44:56.672Z,17.70
2022-12-31T15:47:29.647Z,17.70
2022-12-31T15:50:02.504Z,17.70
2022-12-31T15:52:37.034Z,17.60
2022-12-31T15:55:16.966Z,17.60
2022-12-31T15:57:49.567Z,17.70
2022-12-31T16:00:22.054Z,17.60
2022-12-31T16:02:55.230Z,17.60
2022-12-31T16:05:27.515Z,17.60
2022-12-31T16:07:59.442Z,17.60
2022-12-31T16:10:32.758Z,17.60
2022-12-31T16:13:06.101Z,17.60
2022-12-31T16:15:37.773Z,17.60
2022-12-31T16:18:10.552Z,17.50
2022-12-31T16:20:42.947Z,17.50
2022-12-31T16:23:21.795Z,17.50
2022-12-31T16:25:56.384Z,17.40
2022-12-31T16:28:29.897Z,17.40
2022-12-31T16:31:02.445Z,17.30
2022-12-31T16:33:34.305Z,17.20
2022-12-31T16:36:06.323Z,17.20
2022-12-31T16:38:37.933Z,17.10
2022-12-31T16:41:17.531Z,17.00
2022-12-31T16:43:49.569Z,17.00
2022-12-31T16:46:25.455Z,16.90
2022-12-31T16:48:58.455Z,16.80
2022-12-31T16:51:33.769Z,16.70
2022-12-31T16:54:18.465Z,16.70
2022-12-31T16:56:52.153Z,16.70
2022-12-31T16:59:27.215Z,16.60
2022-12-31T17:02:03.862Z,16.60
2022-12-31T17:04:37.716Z,16.50
2022-12-31T17:07:37.171Z,16.50
2022-12-31T17:10:18.274Z,16.40
2022-12-31T17:13:27.291Z,16.40
2022-12-31T17:15:46.118Z,16.30
2022-12-31T17:18:19.740Z,16.40
2022-12-31T17:20:52.276Z,16.30
2022-12-31T17:23:25.296Z,16.30
2022-12-31T17:25:57.726Z,16.40
2022-12-31T17:28:37.980Z,16.30
2022-12-31T17:31:26.659Z,16.40
2022-12-31T17:34:05.921Z,16.30
2022-12-31T17:36:37.751Z,16.30
2022-12-31T17:39:16.419Z,16.30
2022-12-31T17:41:49.504Z,16.30
2022-12-31T17:44:23.544Z,16.30
2022-12-31T17:46:55.270Z,16.30
2022-12-31T17:49:29.430Z,16.30
2022-12-31T17:52:01.023Z,16.30
2022-12-31T17:54:32.597Z,16.30
2022-12-31T17:57:04.303Z,16.30
2022-12-31T17:59:37.227Z,16.40
2022-12-31T18:02:12.344Z,16.50
2022-12-31T18:04:44.018Z,16.50
2022-12-31T18:07:15.622Z,16.60
2022-12-31T18:09:47.239Z,16.60
2022-12-31T18:12:18.992Z,16.60
2022-12-31T18:14:51.915Z,16.60
2022-12-31T18:17:23.555Z,16.60
2022-12-31T18:20:04.887Z,16.50
2022-12-31T18:22:37.827Z,16.50
2022-12-31T18:25:11.276Z,16.50
2022-12-31T18:27:42.885Z,16.40
2022-12-31T18:30:19.048Z,16.30
2022-12-31T18:32:50.885Z,16.20
2022-12-31T18:38:14.622Z,16.10
2022-12-31T18:40:50.739Z,16.00
2022-12-31T18:43:22.755Z,15.90
2022-12-31T18:45:56.136Z,15.80
2022-12-31T18:48:27.772Z,15.80
2022-12-31T18:50:59.370Z,15.70
2022-12-31T18:53:30.999Z,15.60
2022-12-31T18:56:02.633Z,15.60
2022-12-31T18:58:34.215Z,15.50
2022-12-31T19:01:09.790Z,15.50
2022-12-31T19:03:41.418Z,15.40
2022-12-31T19:06:13.036Z,15.40
2022-12-31T19:08:44.613Z,15.30
2022-12-31T19:11:16.588Z,15.30
2022-12-31T19:13:48.206Z,15.20
2022-12-31T19:16:21.203Z,15.20
2022-12-31T19:18:52.801Z,15.20
2022-12-31T19:21:24.454Z,15.20
2022-12-31T19:23:56.020Z,15.10
2022-12-31T19:26:27.614Z,15.10
2022-12-31T19:28:59.189Z,15.10
2022-12-31T19:31:32.196Z,15.00
2022-12-31T19:34:03.804Z,14.90
2022-12-31T19:36:41.833Z,14.90
2022-12-31T19:39:16.302Z,14.90
2022-12-31T19:41:52.941Z,14.80
2022-12-31T19:44:27.933Z,14.80
2022-12-31T19:47:00.911Z,14.70
2022-12-31T19:49:32.477Z,14.70
2022-12-31T19:52:04.236Z,14.70
2022-12-31T19:54:35.806Z,14.70
2022-12-31T19:57:07.529Z,14.70
2022-12-31T19:59:39.178Z,14.70
2022-12-31T20:02:12.281Z,14.70
2022-12-31T20:04:44.034Z,14.70
2022-12-31T20:07:15.608Z,14.70
2022-12-31T20:09:47.202Z,14.70
2022-12-31T20:12:18.806Z,14.70
2022-12-31T20:14:50.407Z,14.70
2022-12-31T20:17:23.656Z,14.70
2022-12-31T20:19:55.294Z,14.70
2022-12-31T20:22:26.933Z,14.80
2022-12-31T20:24:58.576Z,14.80
2022-12-31T20:27:30.189Z,14.80
2022-12-31T20:30:01.932Z,14.80
2022-12-31T20:32:34.977Z,14.80
2022-12-31T20:35:06.908Z,14.80
2022-12-31T20:37:38.588Z,14.80
2022-12-31T20:40:10.929Z,14.70
2022-12-31T20:42:42.554Z,14.70
2022-12-31T20:45:14.123Z,14.60
2022-12-31T20:47:47.081Z,14.60
2022-12-31T20:50:18.721Z,14.50
2022-12-31T20:52:50.392Z,14.50
2022-12-31T20:55:22.148Z,14.50
2022-12-31T20:57:53.791Z,14.50
2022-12-31T21:00:25.382Z,14.50
2022-12-31T21:03:10.585Z,14.50
2022-12-31T21:05:50.773Z,14.40
2022-12-31T21:08:22.509Z,14.40
2022-12-31T21:10:54.101Z,14.30
2022-12-31T21:13:26.028Z,14.30
2022-12-31T21:15:57.636Z,14.30
2022-12-31T21:18:30.587Z,14.30
2022-12-31T21:21:02.372Z,14.20
2022-12-31T21:23:33.959Z,14.20
2022-12-31T21:26:05.781Z,14.20
2022-12-31T21:28:37.459Z,14.20
2022-12-31T21:31:11.417Z,14.20
2022-12-31T21:33:45.342Z,14.20
2022-12-31T21:36:17.164Z,14.20
2022-12-31T21:38:49.146Z,14.10
2022-12-31T21:41:39.357Z,14.20
2022-12-31T21:44:11.003Z,14.30
2022-12-31T21:47:00.789Z,14.30
2022-12-31T21:49:35.490Z,14.30
2022-12-31T21:52:25.772Z,14.50
2022-12-31T21:55:16.759Z,14.60
2022-12-31T21:58:24.210Z,14.90
2022-12-31T22:00:59.492Z,15.20
2022-12-31T22:03:32.159Z,15.40
2022-12-31T22:06:10.407Z,15.60
2022-12-31T22:08:42.890Z,15.80
2022-12-31T22:11:14.931Z,16.00
2022-12-31T22:13:46.694Z,16.20
2022-12-31T22:16:20.116Z,16.20
2022-12-31T22:18:54.526Z,16.40
2022-12-31T22:21:27.678Z,16.40
2022-12-31T22:23:59.400Z,16.50
2022-12-31T22:26:31.049Z,16.50
2022-12-31T22:29:02.796Z,16.60
2022-12-31T22:31:34.494Z,16.70
2022-12-31T22:34:06.168Z,16.80
2022-12-31T22:36:39.133Z,16.90
2022-12-31T22:39:14.003Z,17.00
2022-12-31T22:42:05.606Z,17.00
2022-12-31T22:44:37.219Z,17.10
2022-12-31T22:47:09.111Z,17.10
2022-12-31T22:49:40.733Z,17.10
2022-12-31T22:52:16.813Z,17.10
2022-12-31T22:54:48.693Z,17.10
2022-12-31T22:57:20.544Z,17.10
2022-12-31T22:59:52.192Z,17.10
2022-12-31T23:02:23.877Z,16.90
2022-12-31T23:05:15.444Z,16.70
2022-12-31T23:07:48.386Z,16.40
2022-12-31T23:10:40.299Z,16.10
2022-12-31T23:13:30.335Z,15.90
2022-12-31T23:16:20.337Z,15.70
2022-12-31T23:19:10.701Z,15.50
2022-12-31T23:22:00.915Z,15.40
2022-12-31T23:24:33.991Z,15.20
2022-12-31T23:27:06.165Z,15.10
2022-12-31T23:29:45.547Z,14.80
2022-12-31T23:32:18.312Z,14.70
2022-12-31T23:34:49.881Z,14.50
2022-12-31T23:37:21.608Z,14.40
2022-12-31T23:39:54.557Z,14.30
2022-12-31T23:42:26.160Z,14.20
2022-12-31T23:44:57.730Z,14.10
2022-12-31T23:47:29.287Z,14.00
2022-12-31T23:50:00.859Z,14.00
2022-12-31T23:52:33.314Z,14.10
2022-12-31T23:55:07.731Z,14.30
2022-12-31T23:57:39.735Z,14.50
